sensor_id;sensor_type;location;lat;lon;timestamp;pressure;altitude;pressure_sealevel;temperature;humidity
76195;BME280;64964;48.694;21.206;2023-05-10T16:05:11;98096.63;;;16.16;33.67
76195;BME280;64964;48.694;21.206;2023-05-10T16:07:38;98095.84;;;16.22;34.22
76195;BME280;64964;48.694;21.206;2023-05-10T16:10:07;98098.88;;;16.26;34.57
76195;BME280;64964;48.694;21.206;2023-05-10T16:12:33;98093.16;;;16.29;34.08
76195;BME280;64964;48.694;21.206;2023-05-10T16:14:58;98090.69;;;16.27;33.25
76195;BME280;64964;48.694;21.206;2023-05-10T16:17:23;98081.06;;;16.39;34.13
76195;BME280;64964;48.694;21.206;2023-05-10T16:19:49;98091.75;;;16.39;32.77
76195;BME280;64964;48.694;21.206;2023-05-10T16:22:14;98091.50;;;16.34;32.34
76195;BME280;64964;48.694;21.206;2023-05-10T16:24:40;98089.69;;;16.48;33.82
76195;BME280;64964;48.694;21.206;2023-05-10T16:27:06;98089.06;;;16.46;32.98
76195;BME280;64964;48.694;21.206;2023-05-10T16:29:32;98094.63;;;16.58;34.26
76195;BME280;64964;48.694;21.206;2023-05-10T16:31:57;98093.56;;;16.59;33.82
76195;BME280;64964;48.694;21.206;2023-05-10T16:34:22;98094.63;;;16.51;33.28
76195;BME280;64964;48.694;21.206;2023-05-10T16:36:49;98088.25;;;16.52;33.71
76195;BME280;64964;48.694;21.206;2023-05-10T16:39:15;98091.94;;;16.44;34.04
76195;BME280;64964;48.694;21.206;2023-05-10T16:41:40;98101.19;;;16.49;34.28
76195;BME280;64964;48.694;21.206;2023-05-10T16:44:06;98096.03;;;16.34;34.21
76195;BME280;64964;48.694;21.206;2023-05-10T16:46:31;98104.06;;;16.40;34.58
76195;BME280;64964;48.694;21.206;2023-05-10T16:48:58;98095.84;;;16.35;34.55
76195;BME280;64964;48.694;21.206;2023-05-10T16:51:24;98104.47;;;16.44;34.80
76195;BME280;64964;48.694;21.206;2023-05-10T16:53:50;98096.47;;;16.44;34.87
76195;BME280;64964;48.694;21.206;2023-05-10T16:56:15;98099.56;;;16.48;35.10
76195;BME280;64964;48.694;21.206;2023-05-10T16:58:45;98103.84;;;16.42;35.22
76195;BME280;64964;48.694;21.206;2023-05-10T17:01:14;98104.06;;;16.40;35.42
76195;BME280;64964;48.694;21.206;2023-05-10T17:03:39;98105.47;;;16.36;35.59
76195;BME280;64964;48.694;21.206;2023-05-10T17:06:05;98117.56;;;16.26;35.48
76195;BME280;64964;48.694;21.206;2023-05-10T17:08:31;98108.13;;;16.30;36.16
76195;BME280;64964;48.694;21.206;2023-05-10T17:11:00;98103.84;;;16.22;35.58
76195;BME280;64964;48.694;21.206;2023-05-10T17:13:26;98108.94;;;16.17;35.66
76195;BME280;64964;48.694;21.206;2023-05-10T17:15:51;98112.63;;;16.16;36.00
76195;BME280;64964;48.694;21.206;2023-05-10T17:18:17;98115.50;;;16.14;36.69
76195;BME280;64964;48.694;21.206;2023-05-10T17:20:43;98112.63;;;16.09;36.17
76195;BME280;64964;48.694;21.206;2023-05-10T17:23:09;98111.78;;;16.09;36.34
76195;BME280;64964;48.694;21.206;2023-05-10T17:25:35;98107.25;;;15.96;36.31
76195;BME280;64964;48.694;21.206;2023-05-10T17:28:01;98104.56;;;15.89;36.55
76195;BME280;64964;48.694;21.206;2023-05-10T17:30:26;98107.41;;;15.88;36.57
76195;BME280;64964;48.694;21.206;2023-05-10T17:32:53;98106.34;;;15.76;36.22
76195;BME280;64964;48.694;21.206;2023-05-10T17:35:19;98107.19;;;15.76;37.08
76195;BME280;64964;48.694;21.206;2023-05-10T17:37:45;98112.28;;;15.71;37.20
76195;BME280;64964;48.694;21.206;2023-05-10T17:40:11;98108.38;;;15.67;37.28
76195;BME280;64964;48.694;21.206;2023-05-10T17:42:36;98115.09;;;15.63;37.42
76195;BME280;64964;48.694;21.206;2023-05-10T17:45:02;98114.06;;;15.57;37.41
76195;BME280;64964;48.694;21.206;2023-05-10T17:47:27;98114.84;;;15.51;38.01
76195;BME280;64964;48.694;21.206;2023-05-10T17:49:53;98111.34;;;15.44;37.82
76195;BME280;64964;48.694;21.206;2023-05-10T17:52:18;98118.63;;;15.29;37.57
76195;BME280;64964;48.694;21.206;2023-05-10T17:54:44;98113.28;;;15.22;37.87
76195;BME280;64964;48.694;21.206;2023-05-10T17:57:09;98113.88;;;15.17;38.13
76195;BME280;64964;48.694;21.206;2023-05-10T17:59:35;98113.00;;;15.10;38.23
76195;BME280;64964;48.694;21.206;2023-05-10T18:02:01;98119.28;;;15.03;38.62
76195;BME280;64964;48.694;21.206;2023-05-10T18:04:26;98127.22;;;14.96;38.80
76195;BME280;64964;48.694;21.206;2023-05-10T18:06:52;98123.88;;;14.87;38.87
76195;BME280;64964;48.694;21.206;2023-05-10T18:09:25;98126.69;;;14.79;38.89
76195;BME280;64964;48.694;21.206;2023-05-10T18:11:50;98133.81;;;14.72;39.07
76195;BME280;64964;48.694;21.206;2023-05-10T18:14:15;98129.25;;;14.66;39.43
76195;BME280;64964;48.694;21.206;2023-05-10T18:16:41;98133.88;;;14.57;39.37
76195;BME280;64964;48.694;21.206;2023-05-10T18:19:07;98136.31;;;14.52;39.55
76195;BME280;64964;48.694;21.206;2023-05-10T18:21:32;98132.28;;;14.41;39.90
76195;BME280;64964;48.694;21.206;2023-05-10T18:23:58;98145.91;;;14.32;39.90
76195;BME280;64964;48.694;21.206;2023-05-10T18:26:23;98142.75;;;14.22;40.08
76195;BME280;64964;48.694;21.206;2023-05-10T18:28:49;98141.75;;;14.08;40.66
76195;BME280;64964;48.694;21.206;2023-05-10T18:31:14;98144.47;;;13.93;40.84
76195;BME280;64964;48.694;21.206;2023-05-10T18:33:40;98146.31;;;13.78;41.36
76195;BME280;64964;48.694;21.206;2023-05-10T18:36:06;98153.47;;;13.62;41.38
76195;BME280;64964;48.694;21.206;2023-05-10T18:38:31;98159.91;;;13.53;41.59
76195;BME280;64964;48.694;21.206;2023-05-10T18:40:57;98163.03;;;13.42;41.88
76195;BME280;64964;48.694;21.206;2023-05-10T18:43:22;98159.56;;;13.27;42.45
76195;BME280;64964;48.694;21.206;2023-05-10T18:45:48;98156.38;;;13.08;42.70
76195;BME280;64964;48.694;21.206;2023-05-10T18:48:15;98161.69;;;12.93;42.83
76195;BME280;64964;48.694;21.206;2023-05-10T18:50:40;98157.81;;;12.81;42.83
76195;BME280;64964;48.694;21.206;2023-05-10T18:53:05;98163.72;;;12.68;43.72
76195;BME280;64964;48.694;21.206;2023-05-10T18:55:31;98168.47;;;12.58;43.62
76195;BME280;64964;48.694;21.206;2023-05-10T18:57:56;98159.91;;;12.48;43.65
76195;BME280;64964;48.694;21.206;2023-05-10T19:00:22;98169.75;;;12.39;44.14
76195;BME280;64964;48.694;21.206;2023-05-10T19:02:47;98163.69;;;12.31;43.90
76195;BME280;64964;48.694;21.206;2023-05-10T19:05:13;98168.56;;;12.19;44.19
76195;BME280;64964;48.694;21.206;2023-05-10T19:07:39;98165.59;;;12.14;44.05
76195;BME280;64964;48.694;21.206;2023-05-10T19:10:09;98166.13;;;12.09;44.33
76195;BME280;64964;48.694;21.206;2023-05-10T19:12:34;98175.09;;;12.08;44.33
76195;BME280;64964;48.694;21.206;2023-05-10T19:14:59;98167.63;;;12.04;44.37
76195;BME280;64964;48.694;21.206;2023-05-10T19:17:25;98166.34;;;12.00;44.41
76195;BME280;64964;48.694;21.206;2023-05-10T19:19:50;98175.66;;;11.95;44.30
76195;BME280;64964;48.694;21.206;2023-05-10T19:22:15;98170.84;;;11.91;45.07
76195;BME280;64964;48.694;21.206;2023-05-10T19:24:41;98166.09;;;11.86;44.39
76195;BME280;64964;48.694;21.206;2023-05-10T19:27:06;98166.56;;;11.82;44.63
76195;BME280;64964;48.694;21.206;2023-05-10T19:29:33;98166.91;;;11.79;44.80
76195;BME280;64964;48.694;21.206;2023-05-10T19:31:58;98175.03;;;11.77;44.57
76195;BME280;64964;48.694;21.206;2023-05-10T19:34:24;98172.72;;;11.74;44.74
76195;BME280;64964;48.694;21.206;2023-05-10T19:36:50;98173.09;;;11.71;44.81
76195;BME280;64964;48.694;21.206;2023-05-10T19:39:15;98168.97;;;11.68;44.79
76195;BME280;64964;48.694;21.206;2023-05-10T19:41:40;98164.81;;;11.66;44.68
76195;BME280;64964;48.694;21.206;2023-05-10T19:44:06;98169.66;;;11.62;44.85
76195;BME280;64964;48.694;21.206;2023-05-10T19:46:31;98173.47;;;11.60;44.86
76195;BME280;64964;48.694;21.206;2023-05-10T19:48:57;98169.31;;;11.57;44.91
76195;BME280;64964;48.694;21.206;2023-05-10T19:51:22;98169.69;;;11.54;44.79
76195;BME280;64964;48.694;21.206;2023-05-10T19:53:47;98171.50;;;11.54;44.73
76195;BME280;64964;48.694;21.206;2023-05-10T19:56:13;98165.56;;;11.52;44.74
76195;BME280;64964;48.694;21.206;2023-05-10T19:58:39;98167.19;;;11.53;44.70
76195;BME280;64964;48.694;21.206;2023-05-10T20:01:04;98168.00;;;11.53;44.59
76195;BME280;64964;48.694;21.206;2023-05-10T20:03:32;98174.81;;;11.56;44.54
76195;BME280;64964;48.694;21.206;2023-05-10T20:05:57;98171.66;;;11.52;44.62
76195;BME280;64964;48.694;21.206;2023-05-10T20:08:23;98173.69;;;11.50;44.81
76195;BME280;64964;48.694;21.206;2023-05-10T20:10:48;98172.19;;;11.47;44.85
76195;BME280;64964;48.694;21.206;2023-05-10T20:13:14;98175.84;;;11.46;45.07
76195;BME280;64964;48.694;21.206;2023-05-10T20:15:39;98174.34;;;11.44;44.96
76195;BME280;64964;48.694;21.206;2023-05-10T20:18:04;98171.06;;;11.42;45.03
76195;BME280;64964;48.694;21.206;2023-05-10T20:20:30;98175.03;;;11.38;45.06
76195;BME280;64964;48.694;21.206;2023-05-10T20:22:55;98169.25;;;11.34;45.07
76195;BME280;64964;48.694;21.206;2023-05-10T20:25:21;98174.69;;;11.33;45.14
76195;BME280;64964;48.694;21.206;2023-05-10T20:27:46;98176.69;;;11.31;45.17
76195;BME280;64964;48.694;21.206;2023-05-10T20:30:14;98175.38;;;11.27;45.39
76195;BME280;64964;48.694;21.206;2023-05-10T20:32:41;98171.25;;;11.24;45.14
76195;BME280;64964;48.694;21.206;2023-05-10T20:35:08;98170.78;;;11.20;45.43
76195;BME280;64964;48.694;21.206;2023-05-10T20:37:34;98174.75;;;11.16;45.45
76195;BME280;64964;48.694;21.206;2023-05-10T20:39:59;98174.28;;;11.13;45.45
76195;BME280;64964;48.694;21.206;2023-05-10T20:42:25;98171.97;;;11.10;45.70
76195;BME280;64964;48.694;21.206;2023-05-10T20:44:50;98172.28;;;11.07;45.72
76195;BME280;64964;48.694;21.206;2023-05-10T20:47:16;98170.97;;;11.03;45.71
76195;BME280;64964;48.694;21.206;2023-05-10T20:49:42;98163.38;;;11.00;45.78
76195;BME280;64964;48.694;21.206;2023-05-10T20:52:08;98175.94;;;10.97;45.76
76195;BME280;64964;48.694;21.206;2023-05-10T20:54:33;98179.72;;;10.95;45.85
76195;BME280;64964;48.694;21.206;2023-05-10T20:56:59;98176.44;;;10.93;45.90
76195;BME280;64964;48.694;21.206;2023-05-10T20:59:26;98175.13;;;10.89;46.18
76195;BME280;64964;48.694;21.206;2023-05-10T21:01:51;98181.56;;;10.86;46.18
76195;BME280;64964;48.694;21.206;2023-05-10T21:04:17;98176.13;;;10.80;46.42
76195;BME280;64964;48.694;21.206;2023-05-10T21:06:44;98176.78;;;10.73;46.19
76195;BME280;64964;48.694;21.206;2023-05-10T21:09:09;98179.78;;;10.70;46.31
76195;BME280;64964;48.694;21.206;2023-05-10T21:11:35;98178.09;;;10.69;46.39
76195;BME280;64964;48.694;21.206;2023-05-10T21:14:01;98176.63;;;10.67;46.33
76195;BME280;64964;48.694;21.206;2023-05-10T21:16:26;98181.09;;;10.66;46.43
76195;BME280;64964;48.694;21.206;2023-05-10T21:18:52;98170.84;;;10.63;46.55
76195;BME280;64964;48.694;21.206;2023-05-10T21:21:17;98179.78;;;10.62;47.05
76195;BME280;64964;48.694;21.206;2023-05-10T21:23:45;98178.28;;;10.60;46.68
76195;BME280;64964;48.694;21.206;2023-05-10T21:26:10;98184.56;;;10.59;46.48
76195;BME280;64964;48.694;21.206;2023-05-10T21:28:36;98172.34;;;10.58;46.48
76195;BME280;64964;48.694;21.206;2023-05-10T21:31:01;98181.25;;;10.57;46.71
76195;BME280;64964;48.694;21.206;2023-05-10T21:33:27;98174.50;;;10.54;46.54
76195;BME280;64964;48.694;21.206;2023-05-10T21:35:53;98175.44;;;10.53;46.40
76195;BME280;64964;48.694;21.206;2023-05-10T21:38:18;98175.63;;;10.52;46.44
76195;BME280;64964;48.694;21.206;2023-05-10T21:40:43;98166.06;;;10.51;46.38
76195;BME280;64964;48.694;21.206;2023-05-10T21:43:09;98167.06;;;10.50;46.56
76195;BME280;64964;48.694;21.206;2023-05-10T21:45:35;98172.34;;;10.50;46.38
76195;BME280;64964;48.694;21.206;2023-05-10T21:48:01;98167.06;;;10.50;46.32
76195;BME280;64964;48.694;21.206;2023-05-10T21:50:27;98171.50;;;10.49;46.54
76195;BME280;64964;48.694;21.206;2023-05-10T21:52:53;98173.31;;;10.48;46.38
76195;BME280;64964;48.694;21.206;2023-05-10T21:55:18;98169.84;;;10.48;46.08
76195;BME280;64964;48.694;21.206;2023-05-10T21:57:45;98176.78;;;10.49;46.08
76195;BME280;64964;48.694;21.206;2023-05-10T22:00:11;98176.78;;;10.49;46.10
76195;BME280;64964;48.694;21.206;2023-05-10T22:02:36;98175.94;;;10.48;46.11
76195;BME280;64964;48.694;21.206;2023-05-10T22:05:02;98178.78;;;10.47;46.11
76195;BME280;64964;48.694;21.206;2023-05-10T22:07:29;98180.59;;;10.46;46.06
76195;BME280;64964;48.694;21.206;2023-05-10T22:09:55;98192.81;;;10.47;45.93
76195;BME280;64964;48.694;21.206;2023-05-10T22:12:20;98187.53;;;10.47;45.98
76195;BME280;64964;48.694;21.206;2023-05-10T22:14:45;98189.16;;;10.48;45.93
76195;BME280;64964;48.694;21.206;2023-05-10T22:17:11;98185.56;;;10.50;45.97
76195;BME280;64964;48.694;21.206;2023-05-10T22:19:36;98190.84;;;10.50;45.90
76195;BME280;64964;48.694;21.206;2023-05-10T22:22:01;98186.53;;;10.48;46.09
76195;BME280;64964;48.694;21.206;2023-05-10T22:24:27;98192.97;;;10.46;46.06
76195;BME280;64964;48.694;21.206;2023-05-10T22:26:53;98192.97;;;10.46;46.21
76195;BME280;64964;48.694;21.206;2023-05-10T22:29:22;98195.78;;;10.44;46.03
76195;BME280;64964;48.694;21.206;2023-05-10T22:31:48;98186.19;;;10.43;46.05
76195;BME280;64964;48.694;21.206;2023-05-10T22:34:13;98190.66;;;10.43;45.96
76195;BME280;64964;48.694;21.206;2023-05-10T22:36:39;98192.47;;;10.42;46.00
76195;BME280;64964;48.694;21.206;2023-05-10T22:39:04;98195.28;;;10.41;46.08
76195;BME280;64964;48.694;21.206;2023-05-10T22:41:31;98196.25;;;10.40;46.07
76195;BME280;64964;48.694;21.206;2023-05-10T22:43:57;98197.44;;;10.37;46.15
76195;BME280;64964;48.694;21.206;2023-05-10T22:46:22;98197.56;;;10.36;46.21
76195;BME280;64964;48.694;21.206;2023-05-10T22:48:48;98197.75;;;10.34;46.21
76195;BME280;64964;48.694;21.206;2023-05-10T22:51:13;98196.25;;;10.32;46.20
76195;BME280;64964;48.694;21.206;2023-05-10T22:53:39;98199.25;;;10.29;46.54
76195;BME280;64964;48.694;21.206;2023-05-10T22:56:05;98199.56;;;10.26;46.44
76195;BME280;64964;48.694;21.206;2023-05-10T22:58:30;98197.91;;;10.25;46.38
76195;BME280;64964;48.694;21.206;2023-05-10T23:00:56;98196.56;;;10.20;46.42
76195;BME280;64964;48.694;21.206;2023-05-10T23:03:22;98200.16;;;10.19;46.29
76195;BME280;64964;48.694;21.206;2023-05-10T23:05:47;98196.03;;;10.17;46.34
76195;BME280;64964;48.694;21.206;2023-05-10T23:08:12;98189.44;;;10.13;46.65
76195;BME280;64964;48.694;21.206;2023-05-10T23:10:38;98199.50;;;10.09;46.57
76195;BME280;64964;48.694;21.206;2023-05-10T23:13:04;98194.53;;;10.06;46.75
76195;BME280;64964;48.694;21.206;2023-05-10T23:15:29;98199.16;;;10.04;46.76
76195;BME280;64964;48.694;21.206;2023-05-10T23:17:57;98196.81;;;10.01;46.92
76195;BME280;64964;48.694;21.206;2023-05-10T23:20:25;98199.78;;;9.98;46.67
76195;BME280;64964;48.694;21.206;2023-05-10T23:22:51;98191.84;;;9.98;46.69
76195;BME280;64964;48.694;21.206;2023-05-10T23:25:16;98192.84;;;9.97;46.81
76195;BME280;64964;48.694;21.206;2023-05-10T23:27:41;98204.41;;;9.96;46.80
76195;BME280;64964;48.694;21.206;2023-05-10T23:30:07;98200.13;;;9.95;46.94
76195;BME280;64964;48.694;21.206;2023-05-10T23:32:33;98203.72;;;9.94;46.79
76195;BME280;64964;48.694;21.206;2023-05-10T23:34:58;98202.91;;;9.93;46.97
76195;BME280;64964;48.694;21.206;2023-05-10T23:37:23;98202.25;;;9.91;46.82
76195;BME280;64964;48.694;21.206;2023-05-10T23:39:49;98199.09;;;9.88;46.91
76195;BME280;64964;48.694;21.206;2023-05-10T23:42:14;98198.41;;;9.86;46.99
76195;BME280;64964;48.694;21.206;2023-05-10T23:44:39;98209.16;;;9.84;46.68
76195;BME280;64964;48.694;21.206;2023-05-10T23:47:05;98204.84;;;9.83;47.44
76195;BME280;64964;48.694;21.206;2023-05-10T23:49:31;98203.19;;;9.82;46.93
76195;BME280;64964;48.694;21.206;2023-05-10T23:51:56;98199.72;;;9.82;46.88
76195;BME280;64964;48.694;21.206;2023-05-10T23:54:21;98201.03;;;9.78;47.83
76195;BME280;64964;48.694;21.206;2023-05-10T23:56:47;98193.97;;;9.78;47.10
76195;BME280;64964;48.694;21.206;2023-05-10T23:59:14;98204.66;;;9.77;47.04
